createdAt,value
2018-07-06T00:00:50.478Z,27.5
2018-07-06T00:02:50.098Z,28.9
2018-07-06T00:04:49.944Z,28.9
2018-07-06T00:06:49.811Z,27.3
2018-07-06T00:08:50.287Z,28.4
2018-07-06T00:10:50.030Z,28.6
2018-07-06T00:12:49.614Z,26.8
2018-07-06T00:14:50.472Z,26.8
2018-07-06T00:16:49.777Z,28.3
2018-07-06T00:18:49.779Z,31.0
2018-07-06T00:20:49.810Z,28.9
2018-07-06T00:22:50.122Z,27.3
2018-07-06T00:24:50.094Z,27.3
2018-07-06T00:26:50.421Z,25.5
2018-07-06T00:28:50.343Z,27.7
2018-07-06T00:30:50.446Z,28.8
2018-07-06T00:32:49.761Z,27.9
2018-07-06T00:34:50.312Z,27.9
2018-07-06T00:36:50.476Z,29.3
2018-07-06T00:38:49.949Z,29.1
2018-07-06T00:40:50.119Z,29.3
2018-07-06T00:42:50.262Z,29.7
2018-07-06T00:44:49.849Z,29.7
2018-07-06T00:46:50.045Z,31.2
2018-07-06T00:48:49.883Z,30.8
2018-07-06T00:50:49.804Z,32.4
2018-07-06T00:52:50.459Z,32.4
2018-07-06T00:54:50.599Z,30.7
2018-07-06T00:56:49.882Z,31.9
2018-07-06T00:58:50.304Z,35.1
2018-07-06T01:00:50.415Z,32.5
2018-07-06T01:02:49.911Z,32.5
2018-07-06T01:04:50.217Z,32.3
2018-07-06T01:06:49.676Z,30.6
2018-07-06T01:08:50.031Z,30.6
2018-07-06T01:10:50.154Z,30.6
2018-07-06T01:12:49.626Z,29.8
2018-07-06T01:14:49.722Z,31.5
2018-07-06T01:16:50.488Z,32.3
2018-07-06T01:18:49.518Z,28.6
2018-07-06T01:20:49.780Z,28.7
2018-07-06T01:22:50.414Z,28.7
2018-07-06T01:24:50.358Z,29.0
2018-07-06T01:26:50.340Z,29.8
2018-07-06T01:28:50.272Z,25.8
2018-07-06T01:30:50.411Z,27.7
2018-07-06T01:32:50.275Z,27.7
2018-07-06T01:34:50.155Z,25.5
2018-07-06T01:36:50.159Z,25.5
2018-07-06T01:38:49.793Z,26.1
2018-07-06T01:40:50.120Z,26.1
2018-07-06T01:42:49.993Z,26.1
2018-07-06T01:44:49.800Z,25.7
2018-07-06T01:46:49.971Z,24.7
2018-07-06T01:48:50.508Z,25.0
2018-07-06T01:50:49.689Z,25.0
2018-07-06T01:52:50.472Z,23.1
2018-07-06T01:54:50.440Z,24.6
2018-07-06T01:56:49.763Z,25.3
2018-07-06T01:58:50.227Z,25.3
2018-07-06T02:00:50.263Z,25.3
2018-07-06T02:02:50.038Z,25.4
2018-07-06T02:04:50.253Z,26.4
2018-07-06T02:06:49.833Z,22.9
2018-07-06T02:08:49.539Z,26.3
2018-07-06T02:10:49.894Z,26.3
2018-07-06T02:12:49.584Z,25.5
2018-07-06T02:14:49.967Z,24.1
2018-07-06T02:16:49.551Z,24.7
2018-07-06T02:18:49.989Z,22.6
2018-07-06T02:20:49.597Z,22.6
2018-07-06T02:22:49.709Z,22.7
2018-07-06T02:24:50.441Z,23.6
2018-07-06T02:26:50.446Z,27.6
2018-07-06T02:28:49.699Z,23.0
2018-07-06T02:30:50.138Z,23.0
2018-07-06T02:32:50.197Z,23.7
2018-07-06T02:34:50.281Z,20.9
2018-07-06T02:36:50.226Z,20.9
2018-07-06T02:38:50.490Z,22.6
2018-07-06T02:40:49.724Z,22.6
2018-07-06T02:42:49.765Z,21.9
2018-07-06T02:44:49.912Z,20.0
2018-07-06T02:46:50.218Z,22.7
2018-07-06T02:48:50.172Z,22.7
2018-07-06T02:50:50.279Z,23.1
2018-07-06T02:52:50.332Z,24.6
2018-07-06T02:54:49.702Z,25.8
2018-07-06T02:56:49.969Z,25.6
2018-07-06T02:58:49.789Z,25.6
2018-07-06T03:00:49.865Z,25.1
2018-07-06T03:02:49.906Z,21.5
2018-07-06T03:04:49.612Z,21.8
2018-07-06T03:06:49.720Z,21.8
2018-07-06T03:08:50.351Z,21.9
2018-07-06T03:10:50.449Z,21.5
2018-07-06T03:12:50.476Z,22.9
2018-07-06T03:14:50.340Z,21.1
2018-07-06T03:16:49.756Z,21.1
2018-07-06T03:18:49.818Z,19.6
2018-07-06T03:20:50.250Z,19.0
2018-07-06T03:22:50.100Z,19.8
2018-07-06T03:24:50.221Z,21.5
2018-07-06T03:26:49.566Z,21.5
2018-07-06T03:28:51.220Z,18.7
2018-07-06T03:30:49.791Z,21.2
2018-07-06T03:32:49.710Z,18.5
2018-07-06T03:34:50.258Z,19.3
2018-07-06T03:36:50.329Z,19.3
2018-07-06T03:38:50.003Z,17.5
2018-07-06T03:40:50.355Z,19.3
2018-07-06T03:42:50.427Z,18.5
2018-07-06T03:44:50.077Z,18.5
2018-07-06T03:46:50.401Z,14.9
2018-07-06T03:48:49.645Z,16.9
2018-07-06T03:50:49.922Z,16.8
2018-07-06T03:52:50.242Z,16.8
2018-07-06T03:54:49.804Z,17.4
2018-07-06T03:56:49.846Z,17.2
2018-07-06T03:58:50.166Z,15.6
2018-07-06T04:00:50.470Z,16.7
2018-07-06T04:02:49.991Z,16.7
2018-07-06T04:04:49.705Z,20.5
2018-07-06T04:06:49.634Z,18.8
2018-07-06T04:08:49.752Z,17.6
2018-07-06T04:10:50.071Z,15.7
2018-07-06T04:12:49.557Z,15.7
2018-07-06T04:14:50.138Z,18.4
2018-07-06T04:16:50.337Z,19.2
2018-07-06T04:18:50.415Z,20.1
2018-07-06T04:20:50.504Z,20.1
2018-07-06T04:22:50.286Z,19.7
2018-07-06T04:24:49.708Z,19.7
2018-07-06T04:26:50.181Z,19.1
2018-07-06T04:28:50.088Z,18.0
2018-07-06T04:30:50.311Z,19.9
2018-07-06T04:32:49.971Z,19.9
2018-07-06T04:34:50.501Z,20.5
2018-07-06T04:36:49.970Z,20.1
2018-07-06T04:38:49.637Z,20.1
2018-07-06T04:40:50.015Z,22.6
2018-07-06T04:42:49.634Z,22.6
2018-07-06T04:44:50.173Z,22.7
2018-07-06T04:46:49.852Z,19.2
2018-07-06T04:48:50.321Z,19.3
2018-07-06T04:50:49.792Z,19.4
2018-07-06T04:52:50.324Z,19.4
2018-07-06T04:54:49.641Z,22.8
2018-07-06T04:56:49.641Z,20.1
2018-07-06T04:58:49.783Z,21.6
2018-07-06T05:00:50.353Z,21.2
2018-07-06T05:02:50.020Z,21.2
2018-07-06T05:04:49.579Z,22.9
2018-07-06T05:06:50.519Z,21.2
2018-07-06T05:08:50.351Z,21.2
2018-07-06T05:10:50.024Z,23.1
2018-07-06T05:12:49.725Z,23.1
2018-07-06T05:14:50.266Z,25.8
2018-07-06T05:16:50.519Z,22.7
2018-07-06T05:18:49.890Z,23.6
2018-07-06T05:20:49.767Z,24.0
2018-07-06T05:22:50.396Z,24.0
2018-07-06T05:24:49.834Z,25.2
2018-07-06T05:26:49.982Z,25.9
2018-07-06T05:28:50.493Z,27.1
2018-07-06T05:30:50.276Z,27.1
2018-07-06T05:32:50.093Z,27.5
2018-07-06T05:34:49.635Z,25.8
2018-07-06T05:36:49.635Z,24.0
2018-07-06T05:38:50.282Z,25.7
2018-07-06T05:40:50.243Z,25.7
2018-07-06T05:42:49.681Z,26.0
2018-07-06T05:44:50.217Z,26.4
2018-07-06T05:46:50.564Z,25.1
2018-07-06T05:48:50.051Z,25.1
2018-07-06T05:50:50.138Z,27.0
2018-07-06T05:52:50.201Z,25.5
2018-07-06T05:54:49.828Z,23.5
2018-07-06T05:56:50.299Z,23.5
2018-07-06T05:58:49.664Z,28.0
2018-07-06T06:00:49.737Z,28.0
2018-07-06T06:02:49.832Z,28.2
2018-07-06T06:04:49.838Z,25.6
2018-07-06T06:06:50.031Z,23.3
2018-07-06T06:08:50.118Z,25.7
2018-07-06T06:10:50.213Z,25.7
2018-07-06T06:12:50.317Z,23.0
2018-07-06T06:14:49.781Z,27.8
2018-07-06T06:16:49.573Z,27.2
2018-07-06T06:18:49.880Z,25.5
2018-07-06T06:20:50.076Z,25.5
2018-07-06T06:22:50.209Z,25.9
2018-07-06T06:24:50.383Z,26.9
2018-07-06T06:26:49.793Z,26.9
2018-07-06T06:28:50.019Z,31.3
2018-07-06T06:30:50.408Z,31.3
2018-07-06T06:32:49.961Z,26.5
2018-07-06T06:34:49.733Z,26.5
2018-07-06T06:36:50.252Z,23.4
2018-07-06T06:38:49.652Z,23.4
2018-07-06T06:40:50.121Z,24.7
2018-07-06T06:42:50.194Z,27.3
2018-07-06T06:44:50.671Z,26.7
2018-07-06T06:46:49.808Z,25.0
2018-07-06T06:48:50.039Z,25.0
2018-07-06T06:50:50.227Z,23.7
2018-07-06T06:52:50.307Z,23.9
2018-07-06T06:54:50.416Z,26.6
2018-07-06T06:56:49.721Z,28.5
2018-07-06T06:58:49.893Z,28.5
2018-07-06T07:00:49.955Z,26.7
2018-07-06T07:02:50.210Z,29.7
2018-07-06T07:04:49.870Z,29.7
2018-07-06T07:06:50.203Z,23.4
2018-07-06T07:08:50.317Z,23.4
2018-07-06T07:10:49.563Z,24.0
2018-07-06T07:12:49.654Z,24.3
2018-07-06T07:14:49.810Z,26.4
2018-07-06T07:16:50.100Z,21.6
2018-07-06T07:18:50.339Z,21.6
2018-07-06T07:20:49.669Z,22.5
2018-07-06T07:22:49.746Z,23.3
2018-07-06T07:24:49.932Z,24.8
2018-07-06T07:26:50.244Z,22.8
2018-07-06T07:28:50.470Z,22.8
2018-07-06T07:30:49.533Z,23.4
2018-07-06T07:32:49.613Z,23.3
2018-07-06T07:34:50.018Z,23.1
2018-07-06T07:36:50.171Z,21.8
2018-07-06T07:38:50.345Z,21.8
2018-07-06T07:40:49.801Z,25.8
2018-07-06T07:42:49.902Z,24.8
2018-07-06T07:44:50.019Z,23.0
2018-07-06T07:46:50.187Z,23.0
2018-07-06T07:48:50.288Z,24.1
2018-07-06T07:50:50.380Z,23.1
2018-07-06T07:52:50.497Z,30.0
2018-07-06T07:54:49.717Z,21.0
2018-07-06T07:56:50.006Z,21.0
2018-07-06T07:58:50.169Z,22.8
2018-07-06T08:00:50.628Z,20.4
2018-07-06T08:02:49.948Z,22.4
2018-07-06T08:04:50.232Z,22.1
2018-07-06T08:06:49.539Z,22.1
2018-07-06T08:08:49.820Z,22.9
2018-07-06T08:10:50.017Z,23.9
2018-07-06T08:12:50.138Z,23.9
2018-07-06T08:14:50.249Z,25.8
2018-07-06T08:16:49.672Z,25.8
2018-07-06T08:18:49.762Z,25.7
2018-07-06T08:20:49.974Z,25.7
2018-07-06T08:22:50.252Z,25.1
2018-07-06T08:24:50.398Z,25.1
2018-07-06T08:26:49.693Z,23.3
2018-07-06T08:28:49.850Z,21.4
2018-07-06T08:30:50.079Z,23.2
2018-07-06T08:32:50.252Z,21.1
2018-07-06T08:34:50.463Z,21.1
2018-07-06T08:36:49.690Z,22.9
2018-07-06T08:38:49.586Z,23.2
2018-07-06T08:40:49.735Z,23.0
2018-07-06T08:42:49.830Z,23.0
2018-07-06T08:44:50.026Z,22.6
2018-07-06T08:46:49.633Z,24.9
2018-07-06T08:48:49.725Z,22.5
2018-07-06T08:50:49.851Z,22.6
2018-07-06T08:52:49.938Z,24.1
2018-07-06T08:54:50.025Z,24.1
2018-07-06T08:56:50.211Z,23.3
2018-07-06T08:58:50.267Z,22.6
2018-07-06T09:00:50.494Z,19.7
2018-07-06T09:02:49.618Z,17.5
2018-07-06T09:04:50.234Z,17.5
2018-07-06T09:06:50.427Z,18.1
2018-07-06T09:08:50.512Z,18.1
2018-07-06T09:10:49.714Z,17.6
2018-07-06T09:12:49.837Z,15.9
2018-07-06T09:14:50.060Z,15.9
2018-07-06T09:16:50.304Z,15.9
2018-07-06T09:18:50.366Z,17.9
2018-07-06T09:20:50.459Z,16.8
2018-07-06T09:22:49.515Z,16.8
2018-07-06T09:24:49.637Z,14.6
2018-07-06T09:26:49.875Z,14.4
2018-07-06T09:28:50.056Z,14.4
2018-07-06T09:30:50.186Z,13.2
2018-07-06T09:32:50.307Z,13.2
2018-07-06T09:34:49.543Z,12.8
2018-07-06T09:36:49.929Z,14.0
2018-07-06T09:38:50.158Z,13.3
2018-07-06T09:40:50.343Z,13.3
2018-07-06T09:42:50.386Z,13.0
2018-07-06T09:44:50.437Z,13.1
2018-07-06T09:46:49.697Z,14.5
2018-07-06T09:48:49.892Z,14.5
2018-07-06T09:50:50.055Z,15.0
2018-07-06T09:52:50.413Z,14.9
2018-07-06T09:54:50.486Z,13.6
2018-07-06T09:56:49.710Z,13.1
2018-07-06T09:58:49.790Z,13.8
2018-07-06T10:00:49.917Z,13.8
2018-07-06T10:02:49.792Z,12.5
2018-07-06T10:04:50.243Z,12.9
2018-07-06T10:06:50.486Z,11.7
2018-07-06T10:08:49.709Z,11.7
2018-07-06T10:10:49.909Z,10.8
2018-07-06T10:12:50.217Z,12.2
2018-07-06T10:14:50.400Z,10.6
2018-07-06T10:16:49.718Z,10.6
2018-07-06T10:18:49.831Z,11.6
2018-07-06T10:20:50.075Z,11.6
2018-07-06T10:22:50.334Z,10.9
2018-07-06T10:24:50.400Z,10.1
2018-07-06T10:26:49.662Z,10.1
2018-07-06T10:28:49.744Z,9.7
2018-07-06T10:30:49.787Z,9.7
2018-07-06T10:32:49.910Z,10.8
2018-07-06T10:34:50.281Z,9.7
2018-07-06T10:36:50.468Z,8.7
2018-07-06T10:38:49.534Z,8.7
2018-07-06T10:40:49.688Z,8.5
2018-07-06T10:42:49.831Z,9.0
2018-07-06T10:44:49.906Z,8.4
2018-07-06T10:46:50.068Z,8.4
2018-07-06T10:48:50.269Z,7.3
2018-07-06T10:50:50.377Z,7.3
2018-07-06T10:52:49.592Z,7.3
2018-07-06T10:54:49.814Z,8.2
2018-07-06T10:56:50.040Z,7.2
2018-07-06T10:58:50.187Z,7.2
2018-07-06T11:00:50.286Z,6.5
2018-07-06T11:02:50.457Z,6.7
2018-07-06T11:04:49.657Z,6.4
2018-07-06T11:06:49.948Z,7.7
2018-07-06T11:08:50.170Z,7.7
2018-07-06T11:10:50.516Z,6.2
2018-07-06T11:12:49.737Z,6.1
2018-07-06T11:14:49.835Z,5.7
2018-07-06T11:16:50.049Z,5.7
2018-07-06T11:18:50.172Z,5.9
2018-07-06T11:20:50.273Z,5.8
2018-07-06T11:22:50.330Z,5.8
2018-07-06T11:24:50.449Z,5.7
2018-07-06T11:26:49.606Z,5.7
2018-07-06T11:28:49.699Z,5.4
2018-07-06T11:30:49.859Z,5.3
2018-07-06T11:32:50.059Z,5.3
2018-07-06T11:34:49.555Z,5.4
2018-07-06T11:36:49.766Z,5.3
2018-07-06T11:38:49.901Z,5.7
2018-07-06T11:40:50.089Z,5.4
2018-07-06T11:42:50.258Z,5.2
2018-07-06T11:44:50.536Z,4.6
2018-07-06T11:46:50.077Z,4.6
2018-07-06T11:48:50.463Z,4.6
2018-07-06T11:50:49.520Z,4.3
2018-07-06T11:52:49.581Z,4.6
2018-07-06T11:54:49.686Z,4.6
2018-07-06T11:56:49.916Z,4.0
2018-07-06T11:58:50.053Z,3.8
2018-07-06T12:00:50.232Z,4.2
2018-07-06T12:02:50.468Z,3.9
2018-07-06T12:04:49.818Z,3.9
2018-07-06T12:06:50.060Z,3.9
2018-07-06T12:08:50.076Z,3.6
2018-07-06T12:10:50.186Z,3.7
2018-07-06T12:12:50.247Z,3.7
2018-07-06T12:14:50.333Z,3.8
2018-07-06T12:16:49.650Z,3.6
2018-07-06T12:18:49.857Z,3.6
2018-07-06T12:20:50.198Z,3.2
2018-07-06T12:22:49.645Z,3.3
2018-07-06T12:24:49.751Z,3.3
2018-07-06T12:26:49.997Z,3.3
2018-07-06T12:28:50.078Z,3.2
2018-07-06T12:30:50.126Z,2.8
2018-07-06T12:32:49.562Z,2.8
2018-07-06T12:34:49.956Z,2.9
2018-07-06T12:36:50.170Z,2.8
2018-07-06T12:38:50.285Z,2.7
2018-07-06T12:40:50.352Z,2.9
2018-07-06T12:42:50.430Z,2.9
2018-07-06T12:44:49.598Z,2.5
2018-07-06T12:46:50.003Z,2.5
2018-07-06T12:48:50.181Z,2.6
2018-07-06T12:50:49.940Z,2.6
2018-07-06T12:52:50.157Z,2.6
2018-07-06T12:54:50.252Z,2.6
2018-07-06T12:56:50.446Z,2.5
2018-07-06T12:58:50.110Z,2.6
2018-07-06T13:00:50.372Z,2.2
2018-07-06T13:02:49.555Z,2.4
2018-07-06T13:04:49.776Z,2.4
2018-07-06T13:06:49.949Z,2.5
2018-07-06T13:08:50.012Z,2.6
2018-07-06T13:10:50.267Z,2.4
2018-07-06T13:12:49.713Z,2.4
2018-07-06T13:14:49.838Z,2.4
2018-07-06T13:16:49.984Z,2.4
2018-07-06T13:18:49.820Z,2.3
2018-07-06T13:20:50.089Z,2.2
2018-07-06T13:22:49.654Z,2.2
2018-07-06T13:24:49.712Z,2.1
2018-07-06T13:26:49.864Z,2.4
2018-07-06T13:28:50.004Z,2.2
2018-07-06T13:30:50.131Z,3.2
2018-07-06T13:32:50.248Z,3.2
2018-07-06T13:34:49.857Z,2.0
2018-07-06T13:36:49.799Z,2.1
2018-07-06T13:38:49.996Z,2.1
2018-07-06T13:40:50.210Z,2.1
2018-07-06T13:42:50.259Z,2.0
2018-07-06T13:44:50.011Z,1.8
2018-07-06T13:46:50.210Z,2.1
2018-07-06T13:48:50.259Z,1.9
2018-07-06T13:50:49.511Z,1.9
2018-07-06T13:52:49.564Z,2.6
2018-07-06T13:54:50.448Z,2.5
2018-07-06T13:56:49.750Z,2.5
2018-07-06T13:58:49.865Z,2.3
2018-07-06T14:00:49.606Z,1.9
2018-07-06T14:02:49.665Z,2.0
2018-07-06T14:04:49.991Z,1.7
2018-07-06T14:06:50.165Z,2.0
2018-07-06T14:08:50.462Z,1.6
2018-07-06T14:10:49.555Z,1.6
2018-07-06T14:12:49.639Z,1.8
2018-07-06T14:14:49.724Z,1.4
2018-07-06T14:16:49.925Z,1.6
2018-07-06T14:18:50.010Z,1.4
2018-07-06T14:20:50.060Z,1.4
2018-07-06T14:22:50.149Z,6.3
2018-07-06T14:24:50.193Z,1.3
2018-07-06T14:26:50.393Z,1.3
2018-07-06T14:28:50.464Z,1.5
2018-07-06T14:30:50.550Z,1.5
2018-07-06T14:32:49.720Z,1.4
2018-07-06T14:34:50.332Z,1.6
2018-07-06T14:36:49.849Z,1.6
2018-07-06T14:38:50.087Z,1.4
2018-07-06T14:40:50.192Z,1.6
2018-07-06T14:42:50.316Z,1.3
2018-07-06T14:44:50.438Z,1.3
2018-07-06T14:46:49.641Z,1.3
2018-07-06T14:48:49.967Z,1.3
2018-07-06T14:50:50.066Z,1.6
2018-07-06T14:52:50.296Z,1.4
2018-07-06T14:54:50.151Z,1.6
2018-07-06T14:56:50.399Z,1.6
2018-07-06T14:58:50.502Z,1.3
2018-07-06T15:00:49.619Z,1.3
2018-07-06T15:02:49.694Z,1.3
2018-07-06T15:04:50.027Z,1.2
2018-07-06T15:06:50.600Z,1.3
2018-07-06T15:08:49.596Z,1.3
2018-07-06T15:10:49.998Z,1.4
2018-07-06T15:12:50.090Z,1.4
2018-07-06T15:14:50.386Z,1.5
2018-07-06T15:16:50.509Z,1.5
2018-07-06T15:18:49.596Z,1.5
2018-07-06T15:20:49.826Z,1.4
2018-07-06T15:22:50.031Z,1.5
2018-07-06T15:24:50.472Z,1.5
2018-07-06T15:26:50.010Z,1.5
2018-07-06T15:28:50.072Z,1.4
2018-07-06T15:30:50.318Z,1.5
2018-07-06T15:32:50.404Z,1.3
2018-07-06T15:34:49.671Z,1.3
2018-07-06T15:36:50.009Z,1.4
2018-07-06T15:38:50.217Z,1.4
2018-07-06T15:40:50.356Z,1.5
2018-07-06T15:42:49.619Z,1.4
2018-07-06T15:44:49.693Z,1.4
2018-07-06T15:46:50.032Z,1.5
2018-07-06T15:48:50.147Z,1.3
2018-07-06T15:50:50.340Z,1.5
2018-07-06T15:52:49.723Z,1.3
2018-07-06T15:54:49.850Z,1.3
2018-07-06T15:56:50.093Z,1.3
2018-07-06T15:58:50.227Z,2.4
2018-07-06T16:00:50.330Z,1.3
2018-07-06T16:02:50.466Z,1.3
2018-07-06T16:04:49.669Z,1.3
2018-07-06T16:06:49.919Z,1.3
2018-07-06T16:08:49.984Z,1.4
2018-07-06T16:10:50.098Z,1.2
2018-07-06T16:12:50.188Z,1.2
2018-07-06T16:14:50.263Z,1.5
2018-07-06T16:16:50.442Z,1.5
2018-07-06T16:18:50.499Z,1.4
2018-07-06T16:20:49.716Z,1.4
2018-07-06T16:22:50.339Z,1.4
2018-07-06T16:24:50.563Z,1.4
2018-07-06T16:26:50.259Z,1.4
2018-07-06T16:28:50.299Z,2.2
2018-07-06T16:30:50.463Z,1.7
2018-07-06T16:32:49.624Z,1.5
2018-07-06T16:34:49.895Z,1.5
2018-07-06T16:36:50.107Z,1.5
2018-07-06T16:38:50.201Z,1.7
2018-07-06T16:40:50.296Z,2.0
2018-07-06T16:42:50.386Z,1.8
2018-07-06T16:44:50.514Z,1.8
2018-07-06T16:46:49.692Z,2.1
2018-07-06T16:48:49.865Z,1.8
2018-07-06T16:50:50.155Z,1.8
2018-07-06T16:52:50.313Z,3.4
2018-07-06T16:54:50.423Z,3.4
2018-07-06T16:56:49.719Z,2.0
2018-07-06T16:58:49.770Z,1.7
2018-07-06T17:00:49.843Z,1.7
2018-07-06T17:02:49.931Z,2.0
2018-07-06T17:04:50.258Z,2.1
2018-07-06T17:06:50.487Z,2.0
2018-07-06T17:08:49.726Z,2.3
2018-07-06T17:10:49.985Z,2.0
2018-07-06T17:12:50.039Z,2.1
2018-07-06T17:14:50.125Z,2.1
2018-07-06T17:16:50.378Z,2.4
2018-07-06T17:18:50.532Z,2.1
2018-07-06T17:20:49.597Z,3.1
2018-07-06T17:22:49.656Z,3.1
2018-07-06T17:24:49.775Z,2.3
2018-07-06T17:26:49.940Z,2.1
2018-07-06T17:28:50.010Z,2.5
2018-07-06T17:30:50.152Z,2.5
2018-07-06T17:32:50.258Z,2.8
2018-07-06T17:34:49.696Z,2.8
2018-07-06T17:36:49.855Z,2.5
2018-07-06T17:38:49.925Z,2.5
2018-07-06T17:40:50.016Z,2.6
2018-07-06T17:42:50.271Z,2.6
2018-07-06T17:44:50.420Z,3.1
2018-07-06T17:46:49.725Z,2.9
2018-07-06T17:48:49.835Z,3.2
2018-07-06T17:50:49.970Z,3.0
2018-07-06T17:52:50.109Z,3.0
2018-07-06T17:54:50.244Z,3.1
2018-07-06T17:56:50.429Z,2.9
2018-07-06T17:58:49.641Z,2.8
2018-07-06T18:00:49.755Z,2.8
2018-07-06T18:02:49.964Z,2.8
2018-07-06T18:04:50.269Z,2.9
2018-07-06T18:06:49.659Z,2.8
2018-07-06T18:08:49.805Z,2.9
2018-07-06T18:10:49.967Z,2.9
2018-07-06T18:12:50.483Z,2.7
2018-07-06T18:14:49.833Z,2.9
2018-07-06T18:16:50.427Z,2.9
2018-07-06T18:18:49.674Z,2.8
2018-07-06T18:20:49.929Z,2.7
2018-07-06T18:22:50.472Z,2.8
2018-07-06T18:24:50.250Z,2.8
2018-07-06T18:26:49.544Z,2.8
2018-07-06T18:28:49.716Z,2.8
2018-07-06T18:30:50.121Z,3.2
2018-07-06T18:32:50.543Z,3.2
2018-07-06T18:34:49.871Z,3.0
2018-07-06T18:36:50.103Z,3.1
2018-07-06T18:38:50.293Z,3.2
2018-07-06T18:40:50.463Z,3.2
2018-07-06T18:42:49.603Z,3.1
2018-07-06T18:44:49.944Z,3.3
2018-07-06T18:46:50.227Z,3.6
2018-07-06T18:48:50.338Z,3.6
2018-07-06T18:50:49.643Z,3.3
2018-07-06T18:52:49.908Z,3.6
2018-07-06T18:54:50.179Z,3.6
2018-07-06T18:56:50.493Z,3.4
2018-07-06T18:58:49.716Z,3.4
2018-07-06T19:00:49.973Z,3.5
2018-07-06T19:02:50.054Z,3.7
2018-07-06T19:04:49.630Z,3.7
2018-07-06T19:06:49.938Z,4.0
2018-07-06T19:08:50.057Z,4.0
2018-07-06T19:10:50.256Z,4.1
2018-07-06T19:12:50.437Z,3.8
2018-07-06T19:14:49.531Z,3.8
2018-07-06T19:16:49.966Z,3.8
2018-07-06T19:18:50.121Z,3.9
2018-07-06T19:20:50.418Z,3.9
2018-07-06T19:22:49.594Z,4.0
2018-07-06T19:24:49.834Z,4.0
2018-07-06T19:26:50.368Z,4.0
2018-07-06T19:28:49.710Z,3.9
2018-07-06T19:30:49.984Z,3.8
2018-07-06T19:32:49.551Z,4.0
2018-07-06T19:34:49.885Z,3.7
2018-07-06T19:36:50.197Z,3.7
2018-07-06T19:38:50.393Z,4.9
2018-07-06T19:40:49.549Z,4.2
2018-07-06T19:42:49.658Z,3.8
2018-07-06T19:44:49.758Z,3.9
2018-07-06T19:46:50.169Z,3.9
2018-07-06T19:48:49.548Z,4.1
2018-07-06T19:50:49.712Z,3.8
2018-07-06T19:52:49.861Z,3.9
2018-07-06T19:54:50.006Z,4.1
2018-07-06T19:56:50.284Z,4.1
2018-07-06T19:58:50.397Z,4.1
2018-07-06T20:00:50.512Z,4.0
2018-07-06T20:02:49.677Z,4.3
2018-07-06T20:04:49.961Z,4.6
2018-07-06T20:06:50.454Z,4.6
2018-07-06T20:08:49.642Z,5.0
2018-07-06T20:10:49.834Z,4.5
2018-07-06T20:12:49.979Z,4.5
2018-07-06T20:14:50.154Z,5.2
2018-07-06T20:16:50.462Z,5.2
2018-07-06T20:18:49.640Z,5.6
2018-07-06T20:20:49.837Z,5.1
2018-07-06T20:22:50.073Z,5.6
2018-07-06T20:24:50.167Z,4.3
2018-07-06T20:26:50.478Z,4.3
2018-07-06T20:28:49.566Z,4.3
2018-07-06T20:30:49.769Z,4.3
2018-07-06T20:32:49.891Z,4.3
2018-07-06T20:34:50.198Z,4.2
2018-07-06T20:36:49.789Z,4.6
2018-07-06T20:38:50.120Z,4.5
2018-07-06T20:40:50.367Z,4.5
2018-07-06T20:42:50.453Z,4.6
2018-07-06T20:44:49.586Z,4.4
2018-07-06T20:46:49.810Z,4.4
2018-07-06T20:48:49.894Z,5.2
2018-07-06T20:50:50.125Z,4.5
2018-07-06T20:52:50.369Z,4.7
2018-07-06T20:54:49.577Z,4.7
2018-07-06T20:56:49.869Z,4.9
2018-07-06T20:58:50.082Z,4.5
2018-07-06T21:00:50.174Z,4.8
2018-07-06T21:02:50.356Z,4.7
2018-07-06T21:04:50.007Z,4.7
2018-07-06T21:06:50.027Z,4.9
2018-07-06T21:08:50.184Z,4.6
2018-07-06T21:10:50.317Z,4.5
2018-07-06T21:12:50.547Z,4.5
2018-07-06T21:14:49.817Z,5.1
2018-07-06T21:16:50.469Z,5.2
2018-07-06T21:18:49.725Z,5.0
2018-07-06T21:20:50.432Z,5.5
2018-07-06T21:22:49.747Z,5.5
2018-07-06T21:24:49.885Z,5.4
2018-07-06T21:26:50.377Z,5.7
2018-07-06T21:28:49.569Z,5.0
2018-07-06T21:30:49.890Z,5.0
2018-07-06T21:32:50.195Z,5.8
2018-07-06T21:34:49.647Z,5.8
2018-07-06T21:36:50.027Z,6.2
2018-07-06T21:38:50.278Z,6.2
2018-07-06T21:40:50.419Z,6.4
2018-07-06T21:42:49.667Z,5.9
2018-07-06T21:44:49.759Z,5.9
2018-07-06T21:46:49.994Z,6.7
2018-07-06T21:48:50.112Z,7.0
2018-07-06T21:50:50.210Z,7.0
2018-07-06T21:52:50.355Z,6.4
2018-07-06T21:54:50.438Z,6.5
2018-07-06T21:56:49.765Z,6.6
2018-07-06T21:58:49.827Z,6.2
2018-07-06T22:00:49.988Z,6.2
2018-07-06T22:02:50.059Z,6.4
2018-07-06T22:04:50.306Z,6.4
2018-07-06T22:06:49.577Z,6.5
2018-07-06T22:08:49.727Z,6.5
2018-07-06T22:10:49.985Z,7.3
2018-07-06T22:12:50.150Z,7.3
2018-07-06T22:14:50.279Z,6.9
2018-07-06T22:16:49.634Z,7.2
2018-07-06T22:18:49.810Z,7.4
2018-07-06T22:20:50.017Z,7.4
2018-07-06T22:22:50.225Z,7.4
2018-07-06T22:24:50.395Z,7.4
2018-07-06T22:26:49.699Z,7.8
2018-07-06T22:28:49.947Z,7.5
2018-07-06T22:30:50.076Z,7.5
2018-07-06T22:32:50.339Z,7.7
2018-07-06T22:34:49.796Z,7.9
2018-07-06T22:36:50.274Z,7.6
2018-07-06T22:38:50.502Z,7.6
2018-07-06T22:40:49.651Z,7.3
2018-07-06T22:42:49.856Z,7.4
2018-07-06T22:44:50.227Z,7.2
2018-07-06T22:46:49.580Z,7.2
2018-07-06T22:48:49.986Z,7.2
2018-07-06T22:50:50.408Z,7.8
2018-07-06T22:52:49.656Z,7.7
2018-07-06T22:54:49.834Z,8.6
2018-07-06T22:56:50.104Z,8.6
2018-07-06T22:58:50.323Z,8.0
2018-07-06T23:00:50.461Z,8.0
2018-07-06T23:02:49.688Z,7.7
2018-07-06T23:04:50.227Z,7.8
2018-07-06T23:06:49.600Z,8.3
2018-07-06T23:08:49.793Z,8.3
2018-07-06T23:10:49.975Z,8.4
2018-07-06T23:12:50.180Z,8.6
2018-07-06T23:14:50.318Z,8.2
2018-07-06T23:16:49.539Z,8.6
2018-07-06T23:18:49.825Z,8.6
2018-07-06T23:20:50.151Z,8.9
2018-07-06T23:22:50.274Z,8.5
2018-07-06T23:24:50.341Z,8.3
2018-07-06T23:26:49.575Z,8.3
2018-07-06T23:28:49.740Z,8.8
2018-07-06T23:30:50.096Z,8.8
2018-07-06T23:32:50.165Z,8.8
2018-07-06T23:34:50.455Z,8.6
2018-07-06T23:36:49.738Z,8.6
2018-07-06T23:38:49.812Z,9.7
2018-07-06T23:40:50.049Z,11.0
2018-07-06T23:42:50.222Z,9.0
2018-07-06T23:44:50.349Z,9.4
2018-07-06T23:46:49.550Z,9.4
2018-07-06T23:48:49.802Z,9.7
2018-07-06T23:50:50.195Z,9.3
2018-07-06T23:52:50.533Z,9.5
2018-07-06T23:54:49.659Z,9.5
2018-07-06T23:56:49.836Z,9.4
2018-07-06T23:58:50.212Z,9.4
